地図

経路データ

SID SEASON NUMBER BASIN SUBBASIN NAME ISO_TIME NATURE LAT LON WMO_WIND WMO_PRES WMO_AGENCY TRACK_TYPE DIST2LAND LANDFALL IFLAG USA_AGENCY USA_ATCF_ID USA_LAT USA_LON USA_RECORD USA_STATUS USA_WIND USA_PRES USA_SSHS USA_R34_NE USA_R34_SE USA_R34_SW USA_R34_NW USA_R50_NE USA_R50_SE USA_R50_SW USA_R50_NW USA_R64_NE USA_R64_SE USA_R64_SW USA_R64_NW USA_POCI USA_ROCI USA_RMW USA_EYE TOKYO_LAT TOKYO_LON TOKYO_GRADE TOKYO_WIND TOKYO_PRES TOKYO_R50_DIR TOKYO_R50_LONG TOKYO_R50_SHORT TOKYO_R30_DIR TOKYO_R30_LONG TOKYO_R30_SHORT TOKYO_LAND CMA_LAT CMA_LON CMA_CAT CMA_WIND CMA_PRES HKO_LAT HKO_LON HKO_CAT HKO_WIND HKO_PRES NEWDELHI_LAT NEWDELHI_LON NEWDELHI_GRADE NEWDELHI_WIND NEWDELHI_PRES NEWDELHI_CI NEWDELHI_DP NEWDELHI_POCI REUNION_LAT REUNION_LON REUNION_TYPE REUNION_WIND REUNION_PRES REUNION_TNUM REUNION_CI REUNION_RMW REUNION_R34_NE REUNION_R34_SE REUNION_R34_SW REUNION_R34_NW REUNION_R50_NE REUNION_R50_SE REUNION_R50_SW REUNION_R50_NW REUNION_R64_NE REUNION_R64_SE REUNION_R64_SW REUNION_R64_NW BOM_LAT BOM_LON BOM_TYPE BOM_WIND BOM_PRES BOM_TNUM BOM_CI BOM_RMW BOM_R34_NE BOM_R34_SE BOM_R34_SW BOM_R34_NW BOM_R50_NE BOM_R50_SE BOM_R50_SW BOM_R50_NW BOM_R64_NE BOM_R64_SE BOM_R64_SW BOM_R64_NW BOM_ROCI BOM_POCI BOM_EYE BOM_POS_METHOD BOM_PRES_METHOD NADI_LAT NADI_LON NADI_CAT NADI_WIND NADI_PRES WELLINGTON_LAT WELLINGTON_LON WELLINGTON_WIND WELLINGTON_PRES DS824_LAT DS824_LON DS824_STAGE DS824_WIND DS824_PRES TD9636_LAT TD9636_LON TD9636_STAGE TD9636_WIND TD9636_PRES TD9635_LAT TD9635_LON TD9635_WIND TD9635_PRES TD9635_ROCI NEUMANN_LAT NEUMANN_LON NEUMANN_CLASS NEUMANN_WIND NEUMANN_PRES MLC_LAT MLC_LON MLC_CLASS MLC_WIND MLC_PRES USA_GUST BOM_GUST BOM_GUST_PER REUNION_GUST REUNION_GUST_PER USA_SEAHGT USA_SEARAD_NE USA_SEARAD_SE USA_SEARAD_SW USA_SEARAD_NW STORM_SPEED STORM_DIR
1898355S17043 1899 62 SI MM NOT_NAMED 1898-12-21 06:00:00 NR -16.6500 43.3000 reunion main 108 96 _____O____O___ -1 -16.2000 43.3000 99 9.90000 -17.1000 43.3000 7 2 0
1898355S17043 1899 62 SI MM NOT_NAMED 1898-12-21 09:00:00 NR -16.7627 43.3020 main 96 91 _____P____P___ -1 -16.3082 43.3041 99 -17.2172 43.3000 7 2 0
1898355S17043 1899 62 SI MM NOT_NAMED 1898-12-21 12:00:00 NR -16.8716 43.3039 main 91 84 _____P____P___ -1 -16.4156 43.3078 99 -17.3275 43.3000 7 2 0
1898355S17043 1899 62 SI MM NOT_NAMED 1898-12-21 15:00:00 NR -16.9728 43.3053 main 84 77 _____P____P___ -1 -16.5215 43.3107 99 -17.4241 43.3000 7 2 0
1898355S17043 1899 62 SI MM NOT_NAMED 1898-12-21 18:00:00 NR -17.0625 43.3062 main 77 77 _____P____O___ -1 -16.6250 43.3124 99 -17.5000 43.3000 7 2 172
1898355S17043 1899 62 SI MM NOT_NAMED 1898-12-21 21:00:00 NR -17.1388 43.3063 main 77 71 _____P____P___ -1 -16.7254 43.3126 99 -17.5522 43.3000 7 1 0
1898355S17043 1899 62 SI MM NOT_NAMED 1898-12-22 00:00:00 NR -17.2072 43.3055 main 71 67 _____P____P___ -1 -16.8219 43.3109 99 -17.5925 43.3000 7 1 186
1898355S17043 1899 62 SI MM NOT_NAMED 1898-12-22 03:00:00 NR -17.2751 43.3034 main 67 67 _____P____P___ -1 -16.9137 43.3068 99 -17.6366 43.3000 7 1 0
1898355S17043 1899 62 SI MM NOT_NAMED 1898-12-22 06:00:00 NR -17.3500 43.3000 reunion main 67 64 _____O____O___ -1 -17.0000 43.3000 99 9.90000 -17.7000 43.3000 7 2 188
1898355S17043 1899 62 SI MM NOT_NAMED 1898-12-22 09:00:00 NR -17.4460 43.2951 main 64 63 _____P____P___ -1 -17.0805 43.2903 99 -17.8116 43.3000 7 2 0
1898355S17043 1899 62 SI MM NOT_NAMED 1898-12-22 12:00:00 NR -17.5494 43.2891 main 63 63 _____P____P___ -1 -17.1563 43.2782 99 -17.9425 43.3000 7 2 0
1898355S17043 1899 62 SI MM NOT_NAMED 1898-12-22 15:00:00 NR -17.6530 43.2822 main 67 67 _____P____P___ -1 -17.2289 43.2645 99 -18.0772 43.3000 7 2 186
1898355S17043 1899 62 SI MM NOT_NAMED 1898-12-22 18:00:00 NR -17.7500 43.2750 main 67 71 _____P____O___ -1 -17.3000 43.2500 99 -18.2000 43.3000 7 2 188
1898355S17043 1899 62 SI MM NOT_NAMED 1898-12-22 21:00:00 NR -17.8282 43.2678 main 71 71 _____P____P___ -1 -17.3711 43.2356 99 -18.2853 43.3000 7 2 0
1898355S17043 1899 62 SI MM NOT_NAMED 1898-12-23 00:00:00 NR -17.9006 43.2610 main 74 74 _____P____P___ -1 -17.4438 43.2219 99 -18.3575 43.3000 7 1 0
1898355S17043 1899 62 SI MM NOT_NAMED 1898-12-23 03:00:00 NR -17.9727 43.2549 main 74 74 _____P____P___ -1 -17.5195 43.2098 99 -18.4259 43.3000 7 2 0
1898355S17043 1899 62 SI MM NOT_NAMED 1898-12-23 06:00:00 NR -18.0500 43.2500 reunion main 74 74 _____O____O___ -1 -17.6000 43.2000 99 9.90000 -18.5000 43.3000 7 2 0
1898355S17043 1899 62 SI MM NOT_NAMED 1898-12-23 09:00:00 NR -18.1457 43.2467 main 84 84 _____P____P___ -1 -17.6945 43.1934 99 -18.5969 43.3000 7 2 186
1898355S17043 1899 62 SI MM NOT_NAMED 1898-12-23 12:00:00 NR -18.2469 43.2444 main 84 84 _____P____P___ -1 -17.7937 43.1887 99 -18.7000 43.3000 7 2 187
1898355S17043 1899 62 SI MM NOT_NAMED 1898-12-23 15:00:00 NR -18.3496 43.2430 main 84 84 _____P____P___ -1 -17.8961 43.1859 99 -18.8031 43.3000 7 2 0
1898355S17043 1899 62 SI MM NOT_NAMED 1898-12-23 18:00:00 NR -18.4500 43.2425 main 84 84 _____P____O___ -1 -18.0000 43.1850 99 -18.9000 43.3000 7 2 176
1898355S17043 1899 62 SI MM NOT_NAMED 1898-12-23 21:00:00 NR -18.5430 43.2430 main 85 85 _____P____P___ -1 -18.1039 43.1859 99 -18.9822 43.3000 7 2 0
1898355S17043 1899 62 SI MM NOT_NAMED 1898-12-24 00:00:00 NR -18.6319 43.2444 main 87 87 _____P____P___ -1 -18.2062 43.1888 99 -19.0575 43.3000 7 2 0
1898355S17043 1899 62 SI MM NOT_NAMED 1898-12-24 03:00:00 NR -18.7173 43.2467 main 90 90 _____P____P___ -1 -18.3055 43.1934 99 -19.1291 43.3000 7 2 0
1898355S17043 1899 62 SI MM NOT_NAMED 1898-12-24 06:00:00 NR -18.8000 43.2500 reunion main 86 86 _____O____O___ -1 -18.4000 43.2000 99 9.90000 -19.2000 43.3000 7 2 172
1898355S17043 1899 62 SI MM NOT_NAMED 1898-12-24 09:00:00 NR -18.8787 43.2528 main 92 92 _____P____P___ -1 -18.4824 43.2097 99 -19.2750 43.2959 7 2 0
1898355S17043 1899 62 SI MM NOT_NAMED 1898-12-24 12:00:00 NR -18.9552 43.2572 main 94 94 _____P____P___ -1 -18.5603 43.2218 99 -19.3500 43.2925 7 2 171
1898355S17043 1899 62 SI MM NOT_NAMED 1898-12-24 15:00:00 NR -19.0300 43.2642 main 94 94 _____P____P___ -1 -18.6350 43.2355 99 -19.4250 43.2928 7 2 0
1898355S17043 1899 62 SI MM NOT_NAMED 1898-12-24 18:00:00 NR -19.1038 43.2750 main 94 94 _____P____O___ -1 -18.7075 43.2499 99 -19.5000 43.3000 7 1 0
1898355S17043 1899 62 SI MM NOT_NAMED 1898-12-24 21:00:00 NR -19.1730 43.2931 main 95 95 _____P____P___ -1 -18.7791 43.2644 99 -19.5669 43.3219 7 1 167
1898355S17043 1899 62 SI MM NOT_NAMED 1898-12-25 00:00:00 NR -19.2430 43.3140 main 95 95 _____P____P___ -1 -18.8509 43.2781 99 -19.6350 43.3500 7 2 167
1898355S17043 1899 62 SI MM NOT_NAMED 1898-12-25 03:00:00 NR -19.3174 43.3342 main 97 97 _____P____P___ -1 -18.9242 43.2902 99 -19.7106 43.3781 7 2 164
1898355S17043 1899 62 SI MM NOT_NAMED 1898-12-25 06:00:00 NR -19.4000 43.3500 reunion main 90 90 _____O____O___ -1 -19.0000 43.3000 99 9.90000 -19.8000 43.4000 7 2 178
1898355S17043 1899 62 SI MM NOT_NAMED 1898-12-25 09:00:00 NR -19.5028 43.3550 main 95 95 _____P____P___ -1 -19.0828 43.3028 99 -19.9228 43.4072 7 2 176
1898355S17043 1899 62 SI MM NOT_NAMED 1898-12-25 12:00:00 NR -19.6127 43.3554 main 100 100 _____P____P___ -1 -19.1678 43.3032 99 -20.0575 43.4075 7 2 187
1898355S17043 1899 62 SI MM NOT_NAMED 1898-12-25 15:00:00 NR -19.7215 43.3531 main 105 104 _____P____P___ -1 -19.2545 43.3020 99 -20.1884 43.4041 7 2 185
1898355S17043 1899 62 SI MM NOT_NAMED 1898-12-25 18:00:00 NR -19.8212 43.3500 main 104 104 _____P____O___ -1 -19.3425 43.3001 99 -20.3000 43.4000 7 2 186
1898355S17043 1899 62 SI MM NOT_NAMED 1898-12-25 21:00:00 NR -19.9060 43.3480 main 107 107 _____P____P___ -1 -19.4314 43.2981 99 -20.3806 43.3978 7 1 0
1898355S17043 1899 62 SI MM NOT_NAMED 1898-12-26 00:00:00 NR -19.9127 43.3400 main 107 107 _____P____P___ -1 -19.5209 43.2969 99 -20.4350 43.3975 7 0 0
1898355S17043 1899 62 SI MM NOT_NAMED 1898-12-26 03:00:00 NR -19.8977 43.3310 main 107 107 _____P____P___ -1 -19.6106 43.2973 99 -20.4719 43.3984 7 1 340
1898355S17043 1899 62 SI MM NOT_NAMED 1898-12-26 06:00:00 NR -19.8600 43.3200 reunion main 107 107 _____O____O___ -1 -19.7000 43.3000 99 9.90000 -20.5000 43.4000 7 1 0
1898355S17043 1899 62 SI MM NOT_NAMED 1898-12-26 09:00:00 NR -19.7856 43.3078 main 114 107 _____P________ -1 -19.7856 43.3078 99 7 0 0
1898355S17043 1899 62 SI MM NOT_NAMED 1898-12-26 12:00:00 NR -19.8709 43.3178 main 107 100 _____P________ -1 -19.8709 43.3178 99 7 2 172
1898355S17043 1899 62 SI MM NOT_NAMED 1898-12-26 15:00:00 NR -19.9564 43.3295 main 100 100 _____P________ -1 -19.9564 43.3295 99 7 2 174
1898355S17043 1899 62 SI MM NOT_NAMED 1898-12-26 18:00:00 NR -20.0425 43.3425 main 100 85 _____P________ -1 -20.0425 43.3425 99 2 0
1898355S17043 1899 62 SI MM NOT_NAMED 1898-12-26 21:00:00 NR -20.1295 43.3564 main 85 80 _____P________ -1 -20.1295 43.3564 99 2 172
1898355S17043 1899 62 SI MM NOT_NAMED 1898-12-27 00:00:00 NR -20.2178 43.3709 main 80 76 _____P________ -1 -20.2178 43.3709 99 2 0
1898355S17043 1899 62 SI MM NOT_NAMED 1898-12-27 03:00:00 NR -20.3079 43.3856 main 76 68 _____P________ -1 -20.3079 43.3856 99 2 0
1898355S17043 1899 62 SI MM NOT_NAMED 1898-12-27 06:00:00 NR -20.4000 43.4000 reunion main 68 61 _____O________ -1 -20.4000 43.4000 99 9.90000 2 0
1898355S17043 1899 62 SI MM NOT_NAMED 1898-12-27 09:00:00 NR -20.4945 43.4139 main 61 56 _____P________ -1 -20.4945 43.4139 99 2 0
1898355S17043 1899 62 SI MM NOT_NAMED 1898-12-27 12:00:00 NR -20.5912 43.4272 main 56 53 _____P________ -1 -20.5912 43.4272 99 2 0
1898355S17043 1899 62 SI MM NOT_NAMED 1898-12-27 15:00:00 NR -20.6898 43.4400 main 53 41 _____P________ -1 -20.6898 43.4400 99 2 0
1898355S17043 1899 62 SI MM NOT_NAMED 1898-12-27 18:00:00 NR -20.7900 43.4525 main 41 41 _____P________ -1 -20.7900 43.4525 99 2 178
1898355S17043 1899 62 SI MM NOT_NAMED 1898-12-27 21:00:00 NR -20.8914 43.4646 main 41 41 _____P________ -1 -20.8914 43.4646 99 2 172
1898355S17043 1899 62 SI MM NOT_NAMED 1898-12-28 00:00:00 NR -20.9938 43.4765 main 41 33 _____P________ -1 -20.9938 43.4765 99 2 177
1898355S17043 1899 62 SI MM NOT_NAMED 1898-12-28 03:00:00 NR -21.0967 43.4883 main 33 22 _____P________ -1 -21.0967 43.4883 99 2 0
1898355S17043 1899 62 SI MM NOT_NAMED 1898-12-28 06:00:00 NR -21.2000 43.5000 reunion main 22 _____O________ -1 -21.2000 43.5000 99 9.90000 2 171

IBTrACS Databaseについて

本データベースは、米国NOAAが公開する1842年以降の世界の熱帯低気圧のベストトラックデータアーカイブInternational Best Track Archive for Climate Stewardship (IBTrACS)を、ウェブで閲覧しやすい形式に変換したものです。

最終更新日:2021-12-01